sensor_id;sensor_type;location;lat;lon;timestamp;pressure;altitude;pressure_sealevel;temperature;humidity
70370;BME280;57790;51.356;-2.906;2023-04-02T00:08:38;102202.41;;;11.80;100.00
70370;BME280;57790;51.356;-2.906;2023-04-02T00:11:42;102206.63;;;11.83;100.00
70370;BME280;57790;51.356;-2.906;2023-04-02T00:14:46;102216.41;;;11.82;100.00
70370;BME280;57790;51.356;-2.906;2023-04-02T00:17:47;102218.22;;;11.82;100.00
70370;BME280;57790;51.356;-2.906;2023-04-02T00:21:10;102211.47;;;11.78;100.00
70370;BME280;57790;51.356;-2.906;2023-04-02T00:24:16;102217.75;;;11.77;100.00
70370;BME280;57790;51.356;-2.906;2023-04-02T00:27:16;102221.25;;;11.77;100.00
70370;BME280;57790;51.356;-2.906;2023-04-02T00:30:17;102232.28;;;11.73;100.00
70370;BME280;57790;51.356;-2.906;2023-04-02T00:33:20;102233.00;;;11.75;100.00
70370;BME280;57790;51.356;-2.906;2023-04-02T00:36:24;102234.53;;;11.77;100.00
70370;BME280;57790;51.356;-2.906;2023-04-02T00:39:28;102242.66;;;11.76;100.00
70370;BME280;57790;51.356;-2.906;2023-04-02T00:42:30;102235.50;;;11.76;100.00
70370;BME280;57790;51.356;-2.906;2023-04-02T00:45:34;102238.88;;;11.78;100.00
70370;BME280;57790;51.356;-2.906;2023-04-02T00:48:41;102236.97;;;11.80;100.00
70370;BME280;57790;51.356;-2.906;2023-04-02T00:52:05;102246.97;;;11.77;100.00
70370;BME280;57790;51.356;-2.906;2023-04-02T00:55:14;102248.47;;;11.70;100.00
70370;BME280;57790;51.356;-2.906;2023-04-02T00:58:32;102257.13;;;11.62;100.00
70370;BME280;57790;51.356;-2.906;2023-04-02T01:01:35;102259.63;;;11.63;100.00
70370;BME280;57790;51.356;-2.906;2023-04-02T01:04:37;102263.97;;;11.65;100.00
70370;BME280;57790;51.356;-2.906;2023-04-02T01:08:05;102260.19;;;11.57;100.00
70370;BME280;57790;51.356;-2.906;2023-04-02T01:11:35;102262.09;;;11.55;100.00
70370;BME280;57790;51.356;-2.906;2023-04-02T01:18:01;102279.72;;;11.56;100.00
70370;BME280;57790;51.356;-2.906;2023-04-02T01:24:32;102271.56;;;11.48;100.00
70370;BME280;57790;51.356;-2.906;2023-04-02T01:27:39;102271.13;;;11.43;100.00
70370;BME280;57790;51.356;-2.906;2023-04-02T01:30:44;102267.94;;;11.49;100.00
70370;BME280;57790;51.356;-2.906;2023-04-02T01:33:48;102281.75;;;11.43;100.00
70370;BME280;57790;51.356;-2.906;2023-04-02T01:43:29;102286.47;;;11.40;100.00
70370;BME280;57790;51.356;-2.906;2023-04-02T01:46:33;102281.28;;;11.38;100.00
70370;BME280;57790;51.356;-2.906;2023-04-02T01:49:34;102290.50;;;11.34;100.00
70370;BME280;57790;51.356;-2.906;2023-04-02T01:52:40;102287.97;;;11.32;100.00
70370;BME280;57790;51.356;-2.906;2023-04-02T01:55:53;102290.75;;;11.31;100.00
70370;BME280;57790;51.356;-2.906;2023-04-02T01:58:55;102290.03;;;11.29;100.00
70370;BME280;57790;51.356;-2.906;2023-04-02T02:02:15;102308.50;;;11.30;100.00
70370;BME280;57790;51.356;-2.906;2023-04-02T02:05:20;102313.94;;;11.29;100.00
70370;BME280;57790;51.356;-2.906;2023-04-02T02:11:28;102320.94;;;11.30;100.00
70370;BME280;57790;51.356;-2.906;2023-04-02T02:14:29;102325.63;;;11.26;100.00
70370;BME280;57790;51.356;-2.906;2023-04-02T02:17:30;102322.75;;;11.29;100.00
70370;BME280;57790;51.356;-2.906;2023-04-02T02:20:34;102329.03;;;11.28;100.00
70370;BME280;57790;51.356;-2.906;2023-04-02T02:23:35;102338.31;;;11.23;100.00
70370;BME280;57790;51.356;-2.906;2023-04-02T02:26:36;102341.09;;;11.21;100.00
70370;BME280;57790;51.356;-2.906;2023-04-02T02:29:39;102345.72;;;11.19;100.00
70370;BME280;57790;51.356;-2.906;2023-04-02T02:32:47;102354.50;;;11.20;100.00
70370;BME280;57790;51.356;-2.906;2023-04-02T02:36:01;102350.88;;;11.21;100.00
70370;BME280;57790;51.356;-2.906;2023-04-02T02:39:14;102345.84;;;11.18;100.00
70370;BME280;57790;51.356;-2.906;2023-04-02T02:42:29;102361.63;;;11.19;100.00
70370;BME280;57790;51.356;-2.906;2023-04-02T02:45:34;102358.41;;;11.16;100.00
70370;BME280;57790;51.356;-2.906;2023-04-02T02:48:38;102361.06;;;11.16;100.00
70370;BME280;57790;51.356;-2.906;2023-04-02T02:51:51;102362.88;;;11.15;100.00
70370;BME280;57790;51.356;-2.906;2023-04-02T02:55:02;102365.75;;;11.12;100.00
70370;BME280;57790;51.356;-2.906;2023-04-02T02:58:17;102373.72;;;11.12;100.00
70370;BME280;57790;51.356;-2.906;2023-04-02T03:01:18;102379.75;;;11.14;100.00
70370;BME280;57790;51.356;-2.906;2023-04-02T03:04:20;102393.25;;;11.11;100.00
70370;BME280;57790;51.356;-2.906;2023-04-02T03:07:23;102397.00;;;11.09;100.00
70370;BME280;57790;51.356;-2.906;2023-04-02T03:13:34;102399.41;;;11.12;100.00
70370;BME280;57790;51.356;-2.906;2023-04-02T03:16:43;102398.69;;;11.10;100.00
70370;BME280;57790;51.356;-2.906;2023-04-02T03:19:56;102401.47;;;11.08;100.00
70370;BME280;57790;51.356;-2.906;2023-04-02T03:26:33;102424.19;;;11.01;100.00
70370;BME280;57790;51.356;-2.906;2023-04-02T03:29:41;102432.03;;;11.02;100.00
70370;BME280;57790;51.356;-2.906;2023-04-02T03:32:44;102438.53;;;10.98;100.00
70370;BME280;57790;51.356;-2.906;2023-04-02T03:36:16;102433.97;;;11.00;100.00
70370;BME280;57790;51.356;-2.906;2023-04-02T03:39:20;102431.91;;;10.93;100.00
70370;BME280;57790;51.356;-2.906;2023-04-02T03:42:24;102443.13;;;10.96;100.00
70370;BME280;57790;51.356;-2.906;2023-04-02T03:45:35;102442.28;;;10.96;100.00
70370;BME280;57790;51.356;-2.906;2023-04-02T03:48:48;102447.38;;;10.88;100.00
70370;BME280;57790;51.356;-2.906;2023-04-02T03:52:12;102451.44;;;10.81;100.00
70370;BME280;57790;51.356;-2.906;2023-04-02T03:55:19;102456.63;;;10.82;100.00
70370;BME280;57790;51.356;-2.906;2023-04-02T03:58:26;102449.88;;;10.78;100.00
70370;BME280;57790;51.356;-2.906;2023-04-02T04:01:32;102459.66;;;10.78;100.00
70370;BME280;57790;51.356;-2.906;2023-04-02T04:04:39;102460.75;;;10.75;100.00
70370;BME280;57790;51.356;-2.906;2023-04-02T04:07:40;102464.38;;;10.74;100.00
70370;BME280;57790;51.356;-2.906;2023-04-02T04:10:43;102466.53;;;10.69;100.00
70370;BME280;57790;51.356;-2.906;2023-04-02T04:20:56;102487.75;;;10.69;100.00
70370;BME280;57790;51.356;-2.906;2023-04-02T04:24:01;102503.66;;;10.69;100.00
70370;BME280;57790;51.356;-2.906;2023-04-02T04:30:43;102508.75;;;10.72;100.00
70370;BME280;57790;51.356;-2.906;2023-04-02T04:33:49;102512.13;;;10.74;100.00
70370;BME280;57790;51.356;-2.906;2023-04-02T04:36:58;102516.69;;;10.72;100.00
70370;BME280;57790;51.356;-2.906;2023-04-02T04:40:08;102509.47;;;10.74;100.00
70370;BME280;57790;51.356;-2.906;2023-04-02T04:43:19;102518.50;;;10.71;100.00
70370;BME280;57790;51.356;-2.906;2023-04-02T04:46:30;102523.19;;;10.68;100.00
70370;BME280;57790;51.356;-2.906;2023-04-02T04:49:35;102531.88;;;10.70;100.00
70370;BME280;57790;51.356;-2.906;2023-04-02T04:52:39;102544.19;;;10.71;100.00
70370;BME280;57790;51.356;-2.906;2023-04-02T04:55:43;102543.34;;;10.70;100.00
70370;BME280;57790;51.356;-2.906;2023-04-02T04:58:48;102546.09;;;10.69;100.00
70370;BME280;57790;51.356;-2.906;2023-04-02T05:01:56;102544.41;;;10.68;100.00
70370;BME280;57790;51.356;-2.906;2023-04-02T05:04:59;102548.88;;;10.67;100.00
70370;BME280;57790;51.356;-2.906;2023-04-02T05:08:15;102540.44;;;10.62;100.00
70370;BME280;57790;51.356;-2.906;2023-04-02T05:11:25;102531.63;;;10.62;100.00
70370;BME280;57790;51.356;-2.906;2023-04-02T05:14:37;102555.88;;;10.57;100.00
70370;BME280;57790;51.356;-2.906;2023-04-02T05:18:17;102563.91;;;10.56;100.00
70370;BME280;57790;51.356;-2.906;2023-04-02T05:21:41;102571.28;;;10.63;100.00
70370;BME280;57790;51.356;-2.906;2023-04-02T05:28:47;102570.44;;;10.63;100.00
70370;BME280;57790;51.356;-2.906;2023-04-02T05:31:46;102571.41;;;10.62;100.00
70370;BME280;57790;51.356;-2.906;2023-04-02T05:34:53;102575.47;;;10.55;100.00
70370;BME280;57790;51.356;-2.906;2023-04-02T05:37:55;102580.06;;;10.53;100.00
70370;BME280;57790;51.356;-2.906;2023-04-02T05:41:35;102577.03;;;10.46;100.00
70370;BME280;57790;51.356;-2.906;2023-04-02T05:44:40;102579.09;;;10.42;100.00
70370;BME280;57790;51.356;-2.906;2023-04-02T05:47:45;102589.28;;;10.36;100.00
70370;BME280;57790;51.356;-2.906;2023-04-02T05:50:50;102597.09;;;10.26;100.00
70370;BME280;57790;51.356;-2.906;2023-04-02T05:53:55;102606.97;;;10.24;100.00
70370;BME280;57790;51.356;-2.906;2023-04-02T05:57:01;102612.13;;;10.26;100.00
70370;BME280;57790;51.356;-2.906;2023-04-02T06:00:06;102605.03;;;10.26;100.00
70370;BME280;57790;51.356;-2.906;2023-04-02T06:03:47;102617.69;;;10.23;100.00
70370;BME280;57790;51.356;-2.906;2023-04-02T06:06:57;102623.09;;;10.21;100.00
70370;BME280;57790;51.356;-2.906;2023-04-02T06:10:09;102630.53;;;10.16;100.00
70370;BME280;57790;51.356;-2.906;2023-04-02T06:13:15;102636.06;;;10.13;100.00
70370;BME280;57790;51.356;-2.906;2023-04-02T06:16:19;102635.19;;;10.12;100.00
70370;BME280;57790;51.356;-2.906;2023-04-02T06:19:30;102635.28;;;10.11;100.00
70370;BME280;57790;51.356;-2.906;2023-04-02T06:22:37;102639.03;;;10.08;100.00
70370;BME280;57790;51.356;-2.906;2023-04-02T06:25:44;102634.78;;;10.06;100.00
70370;BME280;57790;51.356;-2.906;2023-04-02T06:28:47;102634.78;;;10.06;100.00
70370;BME280;57790;51.356;-2.906;2023-04-02T06:31:54;102637.44;;;10.06;100.00
70370;BME280;57790;51.356;-2.906;2023-04-02T06:34:55;102644.66;;;10.04;100.00
70370;BME280;57790;51.356;-2.906;2023-04-02T06:37:59;102646.34;;;10.05;100.00
70370;BME280;57790;51.356;-2.906;2023-04-02T06:41:21;102661.63;;;10.01;100.00
70370;BME280;57790;51.356;-2.906;2023-04-02T06:44:27;102660.78;;;10.01;100.00
70370;BME280;57790;51.356;-2.906;2023-04-02T06:47:40;102671.28;;;10.02;100.00
70370;BME280;57790;51.356;-2.906;2023-04-02T06:50:56;102679.09;;;10.04;100.00
70370;BME280;57790;51.356;-2.906;2023-04-02T06:54:00;102682.50;;;10.06;100.00
70370;BME280;57790;51.356;-2.906;2023-04-02T06:57:00;102692.34;;;10.04;100.00
70370;BME280;57790;51.356;-2.906;2023-04-02T07:00:00;102691.63;;;10.02;100.00
70370;BME280;57790;51.356;-2.906;2023-04-02T07:03:04;102689.72;;;10.04;100.00
70370;BME280;57790;51.356;-2.906;2023-04-02T07:06:05;102688.97;;;10.02;100.00
70370;BME280;57790;51.356;-2.906;2023-04-02T07:09:06;102698.72;;;10.01;100.00
70370;BME280;57790;51.356;-2.906;2023-04-02T07:12:13;102704.66;;;10.05;100.00
70370;BME280;57790;51.356;-2.906;2023-04-02T07:15:17;102718.63;;;10.07;100.00
70370;BME280;57790;51.356;-2.906;2023-04-02T07:18:28;102729.13;;;10.08;100.00
70370;BME280;57790;51.356;-2.906;2023-04-02T07:21:29;102727.19;;;10.10;100.00
70370;BME280;57790;51.356;-2.906;2023-04-02T07:24:30;102724.53;;;10.10;100.00
70370;BME280;57790;51.356;-2.906;2023-04-02T07:27:30;102730.59;;;10.12;100.00
70370;BME280;57790;51.356;-2.906;2023-04-02T07:30:31;102728.03;;;10.11;100.00
70370;BME280;57790;51.356;-2.906;2023-04-02T07:33:31;102731.66;;;10.10;100.00
70370;BME280;57790;51.356;-2.906;2023-04-02T07:36:32;102734.09;;;10.13;100.00
70370;BME280;57790;51.356;-2.906;2023-04-02T07:39:32;102727.19;;;10.10;100.00
70370;BME280;57790;51.356;-2.906;2023-04-02T07:42:33;102741.28;;;10.11;100.00
70370;BME280;57790;51.356;-2.906;2023-04-02T07:45:33;102736.22;;;10.08;100.00
70370;BME280;57790;51.356;-2.906;2023-04-02T07:48:33;102742.38;;;10.08;100.00
70370;BME280;57790;51.356;-2.906;2023-04-02T07:51:34;102746.41;;;10.14;100.00
70370;BME280;57790;51.356;-2.906;2023-04-02T07:54:36;102748.28;;;10.12;100.00
70370;BME280;57790;51.356;-2.906;2023-04-02T07:57:57;102746.41;;;10.14;100.00
70370;BME280;57790;51.356;-2.906;2023-04-02T08:00:58;102751.47;;;10.17;100.00
70370;BME280;57790;51.356;-2.906;2023-04-02T08:04:00;102760.03;;;10.21;100.00
70370;BME280;57790;51.356;-2.906;2023-04-02T08:07:01;102767.50;;;10.28;100.00
70370;BME280;57790;51.356;-2.906;2023-04-02T08:10:03;102770.66;;;10.33;100.00
70370;BME280;57790;51.356;-2.906;2023-04-02T08:13:04;102775.00;;;10.34;100.00
70370;BME280;57790;51.356;-2.906;2023-04-02T08:16:05;102789.22;;;10.33;100.00
70370;BME280;57790;51.356;-2.906;2023-04-02T08:19:06;102785.38;;;10.37;100.00
70370;BME280;57790;51.356;-2.906;2023-04-02T08:22:07;102777.19;;;10.40;100.00
70370;BME280;57790;51.356;-2.906;2023-04-02T08:25:08;102783.25;;;10.42;100.00
70370;BME280;57790;51.356;-2.906;2023-04-02T08:28:09;102786.19;;;10.51;100.00
70370;BME280;57790;51.356;-2.906;2023-04-02T08:31:09;102790.28;;;10.55;100.00
70370;BME280;57790;51.356;-2.906;2023-04-02T08:34:10;102794.31;;;10.60;100.00
70370;BME280;57790;51.356;-2.906;2023-04-02T08:37:11;102795.44;;;10.69;100.00
70370;BME280;57790;51.356;-2.906;2023-04-02T08:40:33;102801.81;;;10.66;100.00
70370;BME280;57790;51.356;-2.906;2023-04-02T08:47:04;102813.03;;;10.70;100.00
70370;BME280;57790;51.356;-2.906;2023-04-02T08:50:15;102815.25;;;10.76;100.00
70370;BME280;57790;51.356;-2.906;2023-04-02T08:53:22;102828.06;;;10.82;100.00
70370;BME280;57790;51.356;-2.906;2023-04-02T08:56:32;102834.22;;;10.83;100.00
70370;BME280;57790;51.356;-2.906;2023-04-02T08:59:39;102837.06;;;10.92;100.00
70370;BME280;57790;51.356;-2.906;2023-04-02T09:02:46;102850.81;;;10.97;100.00
70370;BME280;57790;51.356;-2.906;2023-04-02T09:05:50;102848.06;;;10.99;100.00
70370;BME280;57790;51.356;-2.906;2023-04-02T09:08:52;102847.63;;;11.05;100.00
70370;BME280;57790;51.356;-2.906;2023-04-02T09:12:01;102858.84;;;11.09;100.00
70370;BME280;57790;51.356;-2.906;2023-04-02T09:18:16;102861.78;;;11.17;100.00
70370;BME280;57790;51.356;-2.906;2023-04-02T09:24:21;102873.69;;;11.11;100.00
70370;BME280;57790;51.356;-2.906;2023-04-02T09:27:24;102871.16;;;11.10;100.00
70370;BME280;57790;51.356;-2.906;2023-04-02T09:30:44;102880.25;;;11.18;100.00
70370;BME280;57790;51.356;-2.906;2023-04-02T09:33:50;102884.97;;;11.15;100.00
70370;BME280;57790;51.356;-2.906;2023-04-02T09:36:52;102879.53;;;11.16;100.00
70370;BME280;57790;51.356;-2.906;2023-04-02T09:40:08;102887.63;;;11.15;100.00
70370;BME280;57790;51.356;-2.906;2023-04-02T09:43:13;102887.88;;;11.23;100.00
70370;BME280;57790;51.356;-2.906;2023-04-02T09:46:22;102889.56;;;11.24;100.00
70370;BME280;57790;51.356;-2.906;2023-04-02T09:49:25;102886.06;;;11.23;100.00
70370;BME280;57790;51.356;-2.906;2023-04-02T09:52:28;102891.13;;;11.26;100.00
70370;BME280;57790;51.356;-2.906;2023-04-02T09:55:28;102898.16;;;11.27;100.00
70370;BME280;57790;51.356;-2.906;2023-04-02T09:58:30;102898.16;;;11.27;100.00
70370;BME280;57790;51.356;-2.906;2023-04-02T10:01:37;102904.09;;;11.31;100.00
70370;BME280;57790;51.356;-2.906;2023-04-02T10:04:41;102918.34;;;11.30;100.00
70370;BME280;57790;51.356;-2.906;2023-04-02T10:07:48;102918.34;;;11.30;100.00
70370;BME280;57790;51.356;-2.906;2023-04-02T10:10:50;102920.22;;;11.28;100.00
70370;BME280;57790;51.356;-2.906;2023-04-02T10:20:23;102926.56;;;11.38;100.00
70370;BME280;57790;51.356;-2.906;2023-04-02T10:23:28;102939.41;;;11.44;100.00
70370;BME280;57790;51.356;-2.906;2023-04-02T10:29:54;102940.38;;;11.43;100.00
70370;BME280;57790;51.356;-2.906;2023-04-02T10:33:32;102943.75;;;11.45;100.00
70370;BME280;57790;51.356;-2.906;2023-04-02T10:36:48;102950.66;;;11.48;100.00
70370;BME280;57790;51.356;-2.906;2023-04-02T10:39:56;102951.72;;;11.45;100.00
70370;BME280;57790;51.356;-2.906;2023-04-02T10:43:29;102962.00;;;11.50;100.00
70370;BME280;57790;51.356;-2.906;2023-04-02T10:46:40;102959.47;;;11.48;100.00
70370;BME280;57790;51.356;-2.906;2023-04-02T10:50:03;102961.16;;;11.49;100.00
70370;BME280;57790;51.356;-2.906;2023-04-02T10:53:13;102966.59;;;11.48;100.00
70370;BME280;57790;51.356;-2.906;2023-04-02T10:56:15;102967.31;;;11.50;100.00
70370;BME280;57790;51.356;-2.906;2023-04-02T10:59:20;102972.84;;;11.47;100.00
70370;BME280;57790;51.356;-2.906;2023-04-02T11:02:37;102968.16;;;11.50;100.00
70370;BME280;57790;51.356;-2.906;2023-04-02T11:08:46;102971.56;;;11.52;100.00
70370;BME280;57790;51.356;-2.906;2023-04-02T11:11:50;102976.13;;;11.50;100.00
70370;BME280;57790;51.356;-2.906;2023-04-02T11:14:53;102975.06;;;11.53;100.00
70370;BME280;57790;51.356;-2.906;2023-04-02T11:17:55;102973.13;;;11.55;100.00
70370;BME280;57790;51.356;-2.906;2023-04-02T11:20:58;102990.88;;;11.54;100.00
70370;BME280;57790;51.356;-2.906;2023-04-02T11:24:00;102988.84;;;11.58;100.00
70370;BME280;57790;51.356;-2.906;2023-04-02T11:30:21;102980.41;;;11.64;100.00
70370;BME280;57790;51.356;-2.906;2023-04-02T11:36:59;102988.16;;;11.67;100.00
70370;BME280;57790;51.356;-2.906;2023-04-02T11:46:38;103000.38;;;11.70;100.00
70370;BME280;57790;51.356;-2.906;2023-04-02T11:56:18;103004.63;;;11.72;100.00
70370;BME280;57790;51.356;-2.906;2023-04-02T11:59:47;103000.88;;;11.75;100.00
70370;BME280;57790;51.356;-2.906;2023-04-02T12:03:30;103003.66;;;11.73;100.00
70370;BME280;57790;51.356;-2.906;2023-04-02T12:12:45;103007.56;;;11.80;100.00
70370;BME280;57790;51.356;-2.906;2023-04-02T12:15:46;103012.78;;;11.82;100.00
70370;BME280;57790;51.356;-2.906;2023-04-02T12:18:49;103010.13;;;11.82;100.00
70370;BME280;57790;51.356;-2.906;2023-04-02T12:21:53;103011.69;;;11.84;100.00
70370;BME280;57790;51.356;-2.906;2023-04-02T12:24:58;103013.63;;;11.82;100.00
70370;BME280;57790;51.356;-2.906;2023-04-02T12:28:13;103015.31;;;11.83;100.00
70370;BME280;57790;51.356;-2.906;2023-04-02T12:31:19;103008.31;;;11.82;100.00
70370;BME280;57790;51.356;-2.906;2023-04-02T12:34:22;103020.44;;;11.86;100.00
70370;BME280;57790;51.356;-2.906;2023-04-02T12:37:25;103016.03;;;11.85;100.00
70370;BME280;57790;51.356;-2.906;2023-04-02T12:40:27;103018.25;;;11.91;100.00
70370;BME280;57790;51.356;-2.906;2023-04-02T12:43:32;103017.66;;;11.99;100.00
70370;BME280;57790;51.356;-2.906;2023-04-02T12:46:34;103013.19;;;12.00;100.00
70370;BME280;57790;51.356;-2.906;2023-04-02T12:49:39;103007.03;;;11.99;100.00
70370;BME280;57790;51.356;-2.906;2023-04-02T12:52:45;103012.34;;;11.99;100.00
70370;BME280;57790;51.356;-2.906;2023-04-02T12:55:47;103014.56;;;12.05;100.00
70370;BME280;57790;51.356;-2.906;2023-04-02T12:58:56;103014.44;;;12.07;100.00
70370;BME280;57790;51.356;-2.906;2023-04-02T13:01:59;103015.06;;;12.10;100.00
70370;BME280;57790;51.356;-2.906;2023-04-02T13:05:00;103024.50;;;12.14;100.00
70370;BME280;57790;51.356;-2.906;2023-04-02T13:08:02;103015.56;;;12.15;100.00
70370;BME280;57790;51.356;-2.906;2023-04-02T13:11:04;103016.31;;;12.17;100.00
70370;BME280;57790;51.356;-2.906;2023-04-02T13:14:08;103015.09;;;12.21;100.00
70370;BME280;57790;51.356;-2.906;2023-04-02T13:20:42;103009.69;;;12.34;100.00
70370;BME280;57790;51.356;-2.906;2023-04-02T13:23:53;103005.09;;;12.36;100.00
70370;BME280;57790;51.356;-2.906;2023-04-02T13:26:55;103007.63;;;12.38;100.00
70370;BME280;57790;51.356;-2.906;2023-04-02T13:30:06;103011.00;;;12.40;100.00
70370;BME280;57790;51.356;-2.906;2023-04-02T13:33:07;103000.97;;;12.43;100.00
70370;BME280;57790;51.356;-2.906;2023-04-02T13:36:14;103004.47;;;12.44;100.00
70370;BME280;57790;51.356;-2.906;2023-04-02T13:39:15;102999.53;;;12.39;100.00
70370;BME280;57790;51.356;-2.906;2023-04-02T13:42:16;102998.22;;;12.45;100.00
70370;BME280;57790;51.356;-2.906;2023-04-02T13:45:23;103008.13;;;12.54;100.00
70370;BME280;57790;51.356;-2.906;2023-04-02T13:48:24;103007.88;;;12.57;100.00
70370;BME280;57790;51.356;-2.906;2023-04-02T13:51:35;103006.91;;;12.58;100.00
70370;BME280;57790;51.356;-2.906;2023-04-02T13:54:47;103003.06;;;12.62;100.00
70370;BME280;57790;51.356;-2.906;2023-04-02T13:57:49;103001.13;;;12.64;100.00
70370;BME280;57790;51.356;-2.906;2023-04-02T14:00:49;103005.75;;;12.62;100.00
70370;BME280;57790;51.356;-2.906;2023-04-02T14:03:51;103004.66;;;12.65;100.00
70370;BME280;57790;51.356;-2.906;2023-04-02T14:20:04;103002.00;;;12.76;100.00
70370;BME280;57790;51.356;-2.906;2023-04-02T14:27:12;103008.63;;;12.81;100.00
70370;BME280;57790;51.356;-2.906;2023-04-02T14:40:53;103004.53;;;12.89;100.00
70370;BME280;57790;51.356;-2.906;2023-04-02T14:44:02;103007.06;;;12.90;100.00
70370;BME280;57790;51.356;-2.906;2023-04-02T14:47:20;103010.47;;;12.92;100.00
70370;BME280;57790;51.356;-2.906;2023-04-02T14:50:30;103003.19;;;12.94;100.00
70370;BME280;57790;51.356;-2.906;2023-04-02T14:53:49;103007.66;;;12.94;100.00
70370;BME280;57790;51.356;-2.906;2023-04-02T15:00:34;103001.97;;;12.98;100.00
70370;BME280;57790;51.356;-2.906;2023-04-02T15:03:40;102997.38;;;13.00;100.00
70370;BME280;57790;51.356;-2.906;2023-04-02T15:06:46;103009.09;;;12.98;100.00
70370;BME280;57790;51.356;-2.906;2023-04-02T15:09:58;103009.22;;;12.96;100.00
70370;BME280;57790;51.356;-2.906;2023-04-02T15:13:09;103012.38;;;13.01;100.00
70370;BME280;57790;51.356;-2.906;2023-04-02T15:16:17;103014.31;;;12.99;100.00
70370;BME280;57790;51.356;-2.906;2023-04-02T15:19:18;103013.47;;;12.99;100.00
70370;BME280;57790;51.356;-2.906;2023-04-02T15:22:36;103015.28;;;12.98;100.00
70370;BME280;57790;51.356;-2.906;2023-04-02T15:25:51;103018.78;;;12.99;100.00
70370;BME280;57790;51.356;-2.906;2023-04-02T15:35:42;103019.50;;;13.12;100.00
70370;BME280;57790;51.356;-2.906;2023-04-02T15:38:51;103025.34;;;13.06;100.00
70370;BME280;57790;51.356;-2.906;2023-04-02T15:41:56;103028.72;;;13.08;100.00
70370;BME280;57790;51.356;-2.906;2023-04-02T15:49:42;103018.78;;;13.10;100.00
70370;BME280;57790;51.356;-2.906;2023-04-02T15:52:29;103018.06;;;13.08;100.00
70370;BME280;57790;51.356;-2.906;2023-04-02T15:55:45;103019.88;;;13.07;100.00
70370;BME280;57790;51.356;-2.906;2023-04-02T16:09:56;103037.19;;;13.13;100.00
70370;BME280;57790;51.356;-2.906;2023-04-02T16:12:24;103034.78;;;13.10;100.00
70370;BME280;57790;51.356;-2.906;2023-04-02T16:15:33;103043.34;;;13.14;100.00
70370;BME280;57790;51.356;-2.906;2023-04-02T16:21:49;103039.00;;;13.13;100.00
70370;BME280;57790;51.356;-2.906;2023-04-02T16:25:14;103048.69;;;13.14;100.00
70370;BME280;57790;51.356;-2.906;2023-04-02T16:44:49;103062.16;;;13.23;100.00
70370;BME280;57790;51.356;-2.906;2023-04-02T16:51:24;103061.44;;;13.21;100.00
70370;BME280;57790;51.356;-2.906;2023-04-02T17:11:24;103061.91;;;13.26;100.00
70370;BME280;57790;51.356;-2.906;2023-04-02T17:17:38;103068.31;;;13.24;100.00
70370;BME280;57790;51.356;-2.906;2023-04-02T17:20:40;103075.22;;;13.26;100.00
70370;BME280;57790;51.356;-2.906;2023-04-02T17:23:51;103081.66;;;13.24;100.00
70370;BME280;57790;51.356;-2.906;2023-04-02T17:26:58;103084.69;;;13.19;100.00
70370;BME280;57790;51.356;-2.906;2023-04-02T17:30:34;103081.50;;;13.14;100.00
70370;BME280;57790;51.356;-2.906;2023-04-02T17:33:33;103082.34;;;13.15;100.00
70370;BME280;57790;51.356;-2.906;2023-04-02T17:37:06;103074.84;;;13.08;100.00
70370;BME280;57790;51.356;-2.906;2023-04-02T17:43:59;103091.91;;;13.06;100.00
70370;BME280;57790;51.356;-2.906;2023-04-02T17:50:33;103099.19;;;13.04;100.00
70370;BME280;57790;51.356;-2.906;2023-04-02T18:23:51;103120.06;;;12.86;100.00
70370;BME280;57790;51.356;-2.906;2023-04-02T18:27:12;103119.47;;;12.82;100.00
70370;BME280;57790;51.356;-2.906;2023-04-02T18:30:31;103122.84;;;12.85;100.00
70370;BME280;57790;51.356;-2.906;2023-04-02T18:43:41;103127.66;;;12.68;100.00
70370;BME280;57790;51.356;-2.906;2023-04-02T18:47:21;103141.22;;;12.65;100.00
70370;BME280;57790;51.356;-2.906;2023-04-02T18:50:35;103140.72;;;12.60;100.00
70370;BME280;57790;51.356;-2.906;2023-04-02T18:53:36;103144.44;;;12.58;100.00
70370;BME280;57790;51.356;-2.906;2023-04-02T18:56:38;103140.22;;;12.55;100.00
70370;BME280;57790;51.356;-2.906;2023-04-02T19:00:39;103139.09;;;12.46;100.00
70370;BME280;57790;51.356;-2.906;2023-04-02T19:03:40;103147.28;;;12.43;100.00
70370;BME280;57790;51.356;-2.906;2023-04-02T19:06:44;103147.66;;;12.39;100.00
70370;BME280;57790;51.356;-2.906;2023-04-02T19:09:48;103143.53;;;12.35;100.00
70370;BME280;57790;51.356;-2.906;2023-04-02T19:12:50;103145.56;;;12.31;100.00
70370;BME280;57790;51.356;-2.906;2023-04-02T19:19:19;103146.13;;;12.24;100.00
70370;BME280;57790;51.356;-2.906;2023-04-02T19:25:40;103152.66;;;12.19;100.00
70370;BME280;57790;51.356;-2.906;2023-04-02T19:28:55;103149.56;;;12.13;100.00
70370;BME280;57790;51.356;-2.906;2023-04-02T19:35:45;103160.78;;;12.05;100.00
70370;BME280;57790;51.356;-2.906;2023-04-02T19:45:39;103167.72;;;11.95;100.00
70370;BME280;57790;51.356;-2.906;2023-04-02T19:51:52;103182.22;;;11.91;100.00
70370;BME280;57790;51.356;-2.906;2023-04-02T19:54:52;103173.69;;;11.86;100.00
70370;BME280;57790;51.356;-2.906;2023-04-02T19:57:53;103181.91;;;11.83;100.00
70370;BME280;57790;51.356;-2.906;2023-04-02T20:00:54;103177.66;;;11.80;100.00
70370;BME280;57790;51.356;-2.906;2023-04-02T20:03:55;103185.63;;;11.80;100.00
70370;BME280;57790;51.356;-2.906;2023-04-02T20:06:55;103190.31;;;11.77;100.00
70370;BME280;57790;51.356;-2.906;2023-04-02T20:09:55;103187.88;;;11.74;100.00
70370;BME280;57790;51.356;-2.906;2023-04-02T20:12:56;103190.63;;;11.72;100.00
70370;BME280;57790;51.356;-2.906;2023-04-02T20:16:01;103186.38;;;11.70;100.00